createdAt,value
2017-09-13T06:23:37.885Z,14.42
2017-09-13T06:24:46.765Z,14.47
2017-09-13T06:25:55.960Z,14.47
2017-09-13T06:27:04.800Z,14.39
2017-09-13T06:28:13.721Z,14.42
2017-09-13T06:29:23.056Z,14.43
2017-09-13T06:30:32.257Z,14.43
2017-09-13T06:31:41.192Z,14.4
2017-09-13T06:32:50.178Z,14.45
2017-09-13T06:33:59.496Z,14.37
2017-09-13T06:35:08.398Z,14.32
2017-09-13T06:36:17.585Z,14.42
2017-09-13T06:37:26.510Z,14.24
2017-09-13T06:38:35.431Z,14.24
2017-09-13T06:39:44.260Z,14.18
2017-09-13T06:40:53.341Z,14.22
2017-09-13T06:42:02.170Z,14.14
2017-09-13T06:43:11.008Z,14.07
2017-09-13T06:44:19.845Z,14.04
2017-09-13T06:45:28.686Z,14.02
2017-09-13T06:46:37.520Z,14.03
2017-09-13T06:47:46.352Z,14.04
2017-09-13T06:48:55.794Z,14.02
2017-09-13T06:50:04.974Z,14.03
2017-09-13T06:51:14.598Z,13.97
2017-09-13T06:52:23.443Z,13.92
2017-09-13T06:53:32.268Z,13.97
2017-09-13T06:54:41.194Z,13.87
2017-09-13T06:55:50.391Z,13.91
2017-09-13T06:56:59.225Z,13.88
2017-09-13T06:58:08.667Z,13.84
2017-09-13T06:59:17.630Z,13.87
2017-09-13T07:00:26.463Z,13.87
2017-09-13T07:01:35.648Z,13.85
2017-09-13T07:02:44.485Z,13.87
2017-09-13T07:03:53.314Z,13.87
2017-09-13T07:05:02.178Z,13.95
2017-09-13T07:06:11.862Z,14
2017-09-13T07:07:20.840Z,13.91
2017-09-13T07:08:29.677Z,13.88
2017-09-13T07:09:38.555Z,13.88
2017-09-13T07:10:47.529Z,13.92
2017-09-13T07:11:56.440Z,13.92
2017-09-13T07:13:05.279Z,14.02
2017-09-13T07:14:14.110Z,14
2017-09-13T07:15:23.941Z,13.91
2017-09-13T07:16:33.562Z,13.92
2017-09-13T07:17:42.398Z,13.97
2017-09-13T07:18:51.682Z,13.96
2017-09-13T07:20:00.518Z,13.96
2017-09-13T07:21:09.678Z,13.84
2017-09-13T07:22:18.512Z,13.95
2017-09-13T07:23:27.710Z,13.85
2017-09-13T07:24:36.742Z,13.91
2017-09-13T07:25:45.575Z,13.91
2017-09-13T07:26:54.640Z,13.84
2017-09-13T07:28:03.512Z,13.85
2017-09-13T07:29:12.349Z,13.85
2017-09-13T07:30:21.317Z,13.88
2017-09-13T07:31:30.984Z,13.81
2017-09-13T07:32:40.096Z,13.88
2017-09-13T07:33:48.998Z,14
2017-09-13T07:34:57.946Z,13.99
2017-09-13T07:36:07.107Z,13.91
2017-09-13T07:37:16.293Z,13.95
2017-09-13T07:38:25.421Z,13.97
2017-09-13T07:39:34.348Z,13.97
2017-09-13T07:40:43.185Z,13.91
2017-09-13T07:41:52.020Z,14.06
2017-09-13T07:43:01.377Z,14.02
2017-09-13T07:44:10.215Z,13.99
2017-09-13T07:45:19.536Z,13.97
2017-09-13T07:46:28.527Z,14.14
2017-09-13T07:47:37.418Z,14.09
2017-09-13T07:48:46.639Z,14.12
2017-09-13T07:49:55.603Z,14.04
2017-09-13T07:51:04.699Z,14.07
2017-09-13T07:52:13.939Z,14.02
2017-09-13T07:53:22.933Z,14.04
2017-09-13T07:54:32.057Z,14.02
2017-09-13T07:55:40.895Z,13.96
2017-09-13T07:56:50.010Z,13.95
2017-09-13T07:57:58.932Z,13.91
2017-09-13T07:59:07.954Z,13.89
2017-09-13T08:00:16.917Z,13.95
2017-09-13T08:01:25.828Z,13.95
2017-09-13T08:02:34.662Z,13.92
2017-09-13T08:03:43.502Z,13.89
2017-09-13T08:04:52.341Z,13.92
2017-09-13T08:06:01.178Z,13.99
2017-09-13T08:07:10.010Z,14.03
2017-09-13T08:08:19.095Z,13.89
2017-09-13T08:09:28.753Z,13.97
2017-09-13T08:10:37.588Z,13.97
2017-09-13T08:11:46.423Z,13.95
2017-09-13T08:12:55.305Z,13.89
2017-09-13T08:14:04.248Z,13.96
2017-09-13T08:15:13.428Z,13.92
2017-09-13T08:16:22.265Z,13.85
2017-09-13T08:17:31.147Z,13.92
2017-09-13T08:18:40.284Z,13.91
2017-09-13T08:19:49.116Z,13.82
2017-09-13T08:20:58.614Z,13.87
2017-09-13T08:22:07.641Z,13.87
2017-09-13T08:23:16.845Z,13.91
2017-09-13T08:24:25.874Z,13.87
2017-09-13T08:25:34.709Z,14
2017-09-13T08:26:43.540Z,13.88
2017-09-13T08:27:52.379Z,13.99
2017-09-13T08:29:01.209Z,13.96
2017-09-13T08:30:10.046Z,13.95
2017-09-13T08:31:18.875Z,13.92
2017-09-13T08:32:27.714Z,13.96
2017-09-13T08:33:36.542Z,13.89
2017-09-13T08:34:45.376Z,13.87
2017-09-13T08:35:54.219Z,13.88
2017-09-13T08:37:03.052Z,13.87
2017-09-13T08:38:12.250Z,13.85
2017-09-13T08:39:21.970Z,13.84
2017-09-13T08:40:31.677Z,13.92
2017-09-13T08:41:40.528Z,13.88
2017-09-13T08:42:49.367Z,13.96
2017-09-13T08:43:58.201Z,13.99
2017-09-13T08:45:07.070Z,13.88
2017-09-13T08:46:16.122Z,13.95
2017-09-13T08:47:24.965Z,13.91
2017-09-13T08:48:33.806Z,13.97
2017-09-13T08:49:42.639Z,13.89
2017-09-13T08:50:51.469Z,14
2017-09-13T08:52:00.306Z,13.89
2017-09-13T08:53:09.347Z,13.88
2017-09-13T08:54:18.183Z,13.85
2017-09-13T08:55:27.070Z,13.89
2017-09-13T08:56:36.500Z,13.88
2017-09-13T08:57:46.043Z,13.95
2017-09-13T08:58:56.158Z,13.88
2017-09-13T09:00:05.881Z,13.92
2017-09-13T09:01:15.582Z,13.84
2017-09-13T09:02:24.542Z,13.92
2017-09-13T09:03:33.699Z,13.85
2017-09-13T09:04:42.534Z,13.91
2017-09-13T09:05:51.691Z,13.89
2017-09-13T09:07:00.525Z,13.92
2017-09-13T09:08:09.360Z,13.88
2017-09-13T09:09:18.196Z,13.85
2017-09-13T09:10:27.031Z,13.91
2017-09-13T09:11:35.865Z,13.85
2017-09-13T09:12:44.698Z,13.92
2017-09-13T09:13:53.535Z,13.82
2017-09-13T09:15:02.365Z,13.85
2017-09-13T09:16:11.203Z,13.84
2017-09-13T09:17:20.038Z,13.84
2017-09-13T09:18:29.195Z,13.84
2017-09-13T09:19:38.026Z,13.89
2017-09-13T09:20:46.863Z,13.82
2017-09-13T09:21:55.697Z,13.91
2017-09-13T09:23:04.530Z,13.96
2017-09-13T09:24:13.364Z,13.85
2017-09-13T09:25:22.201Z,13.92
2017-09-13T09:26:31.035Z,13.91
2017-09-13T09:27:39.872Z,13.88
2017-09-13T09:28:48.703Z,14
2017-09-13T09:29:57.537Z,13.88
2017-09-13T09:31:06.371Z,13.92
2017-09-13T09:32:15.208Z,14
2017-09-13T09:33:24.043Z,14.04
2017-09-13T09:34:32.874Z,14.09
2017-09-13T09:35:41.713Z,13.99
2017-09-13T09:36:50.545Z,14
2017-09-13T09:37:59.381Z,14
2017-09-13T09:39:08.215Z,14
2017-09-13T09:40:17.045Z,14.02
2017-09-13T09:41:25.882Z,13.92
2017-09-13T09:42:34.718Z,13.89
2017-09-13T09:43:43.555Z,13.96
2017-09-13T09:44:52.387Z,13.97
2017-09-13T09:46:01.223Z,13.92
2017-09-13T09:47:10.053Z,13.91
2017-09-13T09:48:18.889Z,14.02
2017-09-13T09:49:27.722Z,14.1
2017-09-13T09:50:36.558Z,13.99
2017-09-13T09:51:45.391Z,14.09
2017-09-13T09:52:54.225Z,14.09
2017-09-13T09:54:03.057Z,14.1
2017-09-13T09:55:11.897Z,14.06
2017-09-13T09:56:20.734Z,14.07
2017-09-13T09:57:29.561Z,14.06
2017-09-13T09:58:38.387Z,14.09
2017-09-13T09:59:47.225Z,14.17
2017-09-13T10:00:56.058Z,14.21
2017-09-13T10:02:04.895Z,14.2
2017-09-13T10:03:13.732Z,14.32
2017-09-13T10:04:22.562Z,14.28
2017-09-13T10:05:31.393Z,14.39
2017-09-13T10:06:40.229Z,14.35
2017-09-13T10:07:49.062Z,14.45
2017-09-13T10:08:57.897Z,14.42
2017-09-13T10:10:06.730Z,14.47
2017-09-13T10:11:15.563Z,14.57
2017-09-13T10:12:24.764Z,14.6
2017-09-13T10:13:33.926Z,14.69
2017-09-13T10:14:42.756Z,14.65
2017-09-13T10:15:51.596Z,14.68
2017-09-13T10:17:00.429Z,14.61
2017-09-13T10:18:09.262Z,14.62
2017-09-13T10:19:18.093Z,14.65
2017-09-13T10:20:26.931Z,14.72
2017-09-13T10:21:35.772Z,14.83
2017-09-13T10:22:44.611Z,14.81
2017-09-13T10:23:53.771Z,14.84
2017-09-13T10:25:02.603Z,14.89
2017-09-13T10:26:11.435Z,14.96
2017-09-13T10:27:20.271Z,14.92
2017-09-13T10:28:29.112Z,14.99
2017-09-13T10:29:37.941Z,14.92
2017-09-13T10:30:46.779Z,15.07
2017-09-13T10:31:55.608Z,15.06
2017-09-13T10:33:04.445Z,15.07
2017-09-13T10:34:13.279Z,15.13
2017-09-13T10:35:22.112Z,15.17
2017-09-13T10:36:30.939Z,15.2
2017-09-13T10:37:40.101Z,15.19
2017-09-13T10:38:48.932Z,15.29
2017-09-13T10:39:57.767Z,15.31
2017-09-13T10:41:06.602Z,15.29
2017-09-13T10:42:15.436Z,15.38
2017-09-13T10:43:24.267Z,15.29
2017-09-13T10:44:33.103Z,15.43
2017-09-13T10:45:41.935Z,15.44
2017-09-13T10:46:50.772Z,15.43
2017-09-13T10:47:59.926Z,15.5
2017-09-13T10:49:08.771Z,15.44
2017-09-13T10:50:17.606Z,15.47
2017-09-13T10:51:26.444Z,15.41
2017-09-13T10:52:35.278Z,15.5
2017-09-13T10:53:44.114Z,15.46
2017-09-13T10:54:52.951Z,15.46
2017-09-13T10:56:01.787Z,15.49
2017-09-13T10:57:10.625Z,15.47
2017-09-13T10:58:19.457Z,15.36
2017-09-13T10:59:28.295Z,15.54
2017-09-13T11:00:37.128Z,15.6
2017-09-13T11:01:45.965Z,15.67
2017-09-13T11:02:54.806Z,15.65
2017-09-13T11:04:03.635Z,15.74
2017-09-13T11:05:12.472Z,15.76
2017-09-13T11:06:21.308Z,15.74
2017-09-13T11:07:30.147Z,15.86
2017-09-13T11:08:38.978Z,15.86
2017-09-13T11:09:47.813Z,15.87
2017-09-13T11:10:56.646Z,15.89
2017-09-13T11:12:05.479Z,15.83
2017-09-13T11:13:14.320Z,15.89
2017-09-13T11:14:23.150Z,15.92
2017-09-13T11:15:31.992Z,15.86
2017-09-13T11:16:41.149Z,15.92
2017-09-13T11:17:49.985Z,15.87
2017-09-13T11:18:58.820Z,15.87
2017-09-13T11:20:07.655Z,15.9
2017-09-13T11:21:16.816Z,15.86
2017-09-13T11:22:25.652Z,15.83
2017-09-13T11:23:34.492Z,15.94
2017-09-13T11:24:43.325Z,16
2017-09-13T11:25:52.163Z,16.04
2017-09-13T11:27:00.996Z,16.12
2017-09-13T11:28:10.159Z,16.07
2017-09-13T11:29:18.991Z,16.12
2017-09-13T11:30:27.837Z,16.09
2017-09-13T11:31:36.671Z,16.12
2017-09-13T11:32:45.506Z,16.09
2017-09-13T11:33:54.343Z,16.15
2017-09-13T11:35:03.184Z,16.15
2017-09-13T11:36:12.021Z,16.28
2017-09-13T11:37:20.854Z,16.25
2017-09-13T11:38:29.691Z,16.34
2017-09-13T11:39:38.529Z,16.35
2017-09-13T11:40:47.367Z,16.34
2017-09-13T11:41:56.205Z,16.45
2017-09-13T11:43:05.038Z,16.38
2017-09-13T11:44:13.874Z,16.34
2017-09-13T11:45:22.707Z,16.35
2017-09-13T11:46:31.540Z,16.33
2017-09-13T11:47:40.373Z,16.3
2017-09-13T11:48:49.214Z,16.31
2017-09-13T11:49:58.048Z,16.34
2017-09-13T11:51:06.887Z,16.35
2017-09-13T11:52:15.724Z,16.35
2017-09-13T11:53:24.557Z,16.46
2017-09-13T11:54:33.394Z,16.57
2017-09-13T11:55:42.228Z,16.53
2017-09-13T11:56:51.064Z,16.56
2017-09-13T11:57:59.901Z,16.46
2017-09-13T11:59:08.735Z,16.43
2017-09-13T12:00:17.575Z,16.43
2017-09-13T12:01:26.411Z,16.56
2017-09-13T12:02:35.250Z,16.58
2017-09-13T12:03:44.419Z,16.58
2017-09-13T12:04:53.255Z,16.58
2017-09-13T12:06:02.089Z,16.67
2017-09-13T12:07:10.927Z,16.7
2017-09-13T12:08:19.766Z,16.68
2017-09-13T12:09:28.929Z,16.71
2017-09-13T12:10:37.768Z,16.66
2017-09-13T12:11:46.598Z,16.79
2017-09-13T12:12:55.441Z,16.79
2017-09-13T12:14:04.271Z,16.79
2017-09-13T12:15:13.109Z,16.81
2017-09-13T12:16:21.943Z,16.78
2017-09-13T12:17:30.780Z,16.78
2017-09-13T12:18:39.620Z,16.75
2017-09-13T12:19:48.450Z,16.75
2017-09-13T12:20:57.293Z,16.78
2017-09-13T12:22:06.124Z,16.76
2017-09-13T12:23:14.964Z,16.91
2017-09-13T12:24:23.800Z,16.89
2017-09-13T12:25:32.642Z,16.94
2017-09-13T12:26:41.478Z,16.96
2017-09-13T12:27:50.315Z,16.98
2017-09-13T12:28:59.480Z,17.11
2017-09-13T12:30:08.315Z,17.08
2017-09-13T12:31:17.157Z,17.11
2017-09-13T12:32:25.992Z,16.94
2017-09-13T12:33:34.825Z,17.12
2017-09-13T12:34:43.666Z,17.15
2017-09-13T12:35:52.502Z,17.18
2017-09-13T12:37:01.341Z,17.12
2017-09-13T12:38:10.178Z,17.15
2017-09-13T12:39:19.017Z,17.14
2017-09-13T12:40:28.172Z,17.16
2017-09-13T12:41:37.013Z,17.26
2017-09-13T12:42:45.850Z,17.25
2017-09-13T12:43:54.685Z,17.25
2017-09-13T12:45:03.523Z,17.34
2017-09-13T12:46:12.357Z,17.33
2017-09-13T12:47:21.195Z,17.33
2017-09-13T12:48:30.028Z,17.36
2017-09-13T12:49:38.867Z,17.43
2017-09-13T12:50:47.707Z,17.4
2017-09-13T12:51:56.538Z,17.4
2017-09-13T12:53:05.382Z,17.51
2017-09-13T12:54:14.216Z,17.51
2017-09-13T12:55:23.384Z,17.64
2017-09-13T12:56:32.221Z,17.66
2017-09-13T12:57:41.057Z,17.75
2017-09-13T12:58:49.896Z,17.75
2017-09-13T12:59:59.061Z,17.75
2017-09-13T13:01:07.894Z,17.72
2017-09-13T13:02:16.726Z,17.75
2017-09-13T13:03:25.570Z,17.71
2017-09-13T13:04:34.401Z,17.77
2017-09-13T13:05:43.240Z,17.75
2017-09-13T13:06:52.080Z,17.72
2017-09-13T13:08:00.918Z,17.71
2017-09-13T13:09:09.751Z,17.77
2017-09-13T13:10:18.589Z,17.77
2017-09-13T13:11:27.426Z,17.78
2017-09-13T13:12:36.266Z,17.81
2017-09-13T13:13:45.104Z,17.78
2017-09-13T13:14:53.940Z,17.86
2017-09-13T13:16:02.779Z,17.87
2017-09-13T13:17:11.614Z,17.87
2017-09-13T13:18:20.452Z,17.87
2017-09-13T13:19:29.288Z,17.97
2017-09-13T13:20:38.131Z,17.92
2017-09-13T13:21:46.968Z,17.96
2017-09-13T13:22:55.812Z,17.97
2017-09-13T13:24:04.653Z,18.05
2017-09-13T13:25:13.491Z,18.1
2017-09-13T13:26:22.324Z,18.1
2017-09-13T13:27:31.159Z,18.12
2017-09-13T13:28:39.997Z,18.15
2017-09-13T13:29:48.827Z,18.1
2017-09-13T13:30:57.665Z,18.11
2017-09-13T13:32:06.507Z,18.12
2017-09-13T13:33:15.340Z,18.2
2017-09-13T13:34:24.182Z,18.26
2017-09-13T13:35:33.015Z,18.25
2017-09-13T13:36:41.855Z,18.26
2017-09-13T13:37:50.695Z,18.23
2017-09-13T13:38:59.538Z,18.32
2017-09-13T13:40:08.380Z,18.41
2017-09-13T13:41:17.576Z,18.48
2017-09-13T13:42:27.591Z,18.44
2017-09-13T13:43:37.640Z,18.5
2017-09-13T13:44:47.649Z,18.58
2017-09-13T13:45:57.970Z,18.62
2017-09-13T13:47:07.197Z,18.65
2017-09-13T13:48:16.756Z,18.65
2017-09-13T13:49:25.597Z,18.65
2017-09-13T13:50:34.445Z,18.73
2017-09-13T13:51:43.281Z,18.73
2017-09-13T13:52:52.123Z,18.75
2017-09-13T13:54:01.287Z,18.78
2017-09-13T13:55:10.126Z,18.75
2017-09-13T13:56:18.963Z,18.78
2017-09-13T13:57:27.803Z,18.76
2017-09-13T13:58:36.644Z,18.81
2017-09-13T13:59:45.490Z,18.75
2017-09-13T14:00:54.345Z,18.87
2017-09-13T14:02:03.202Z,18.87
2017-09-13T14:03:12.075Z,18.94
2017-09-13T14:04:20.927Z,18.92
2017-09-13T14:05:29.790Z,18.98
2017-09-13T14:06:38.646Z,19
2017-09-13T14:07:47.502Z,19.04
2017-09-13T14:08:56.362Z,19
2017-09-13T14:10:05.218Z,19.04
2017-09-13T14:11:14.111Z,19.04
2017-09-13T14:12:22.963Z,19.04
2017-09-13T14:13:31.827Z,19.02
2017-09-13T14:14:40.688Z,19.07
2017-09-13T14:15:49.553Z,18.99
2017-09-13T14:16:58.435Z,19
2017-09-13T14:18:07.291Z,18.98
2017-09-13T14:19:16.451Z,18.95
2017-09-13T14:20:26.276Z,18.91
2017-09-13T14:21:35.197Z,18.92
2017-09-13T14:22:44.056Z,18.91
2017-09-13T14:23:52.902Z,18.99
2017-09-13T14:25:01.762Z,18.94
2017-09-13T14:26:10.633Z,18.87
2017-09-13T14:27:19.496Z,18.92
2017-09-13T14:28:28.353Z,18.98
2017-09-13T14:29:37.211Z,18.87
2017-09-13T14:30:46.066Z,18.78
2017-09-13T14:31:54.926Z,18.66
2017-09-13T14:33:03.794Z,18.57
2017-09-13T14:34:12.972Z,18.5
2017-09-13T14:35:21.834Z,18.47
2017-09-13T14:36:30.686Z,18.51
2017-09-13T14:37:39.548Z,18.37
2017-09-13T14:38:48.410Z,18.27
2017-09-13T14:39:57.266Z,18.27
2017-09-13T14:41:06.117Z,18.12
2017-09-13T14:42:14.967Z,18.12
2017-09-13T14:43:24.152Z,18.17
2017-09-13T14:44:33.012Z,18.08
2017-09-13T14:45:42.211Z,18.11
2017-09-13T14:46:51.074Z,18.1
2017-09-13T14:47:59.939Z,18.1
2017-09-13T14:49:08.803Z,18.05
2017-09-13T14:50:17.663Z,18.12
2017-09-13T14:51:26.527Z,18.05
2017-09-13T14:52:35.378Z,17.84
2017-09-13T14:53:44.230Z,17.77
2017-09-13T14:54:53.151Z,17.56
2017-09-13T14:56:02.000Z,17.15
2017-09-13T14:57:10.838Z,16.89
2017-09-13T14:58:19.684Z,16.68
2017-09-13T14:59:28.945Z,16.52
2017-09-13T15:00:37.780Z,16.33
2017-09-13T15:01:47.015Z,16.33
2017-09-13T15:02:56.380Z,16.33
2017-09-13T15:04:05.334Z,16.35
2017-09-13T15:05:14.171Z,16.34
2017-09-13T15:06:23.411Z,16.35
2017-09-13T15:07:32.252Z,16.31
2017-09-13T15:08:41.184Z,16.31
2017-09-13T15:09:50.025Z,16.38
2017-09-13T15:10:58.882Z,16.34
2017-09-13T15:12:07.875Z,16.33
2017-09-13T15:13:16.870Z,16.2
2017-09-13T15:14:26.225Z,16.15
2017-09-13T15:15:35.465Z,16.24
2017-09-13T15:16:44.458Z,16.24
2017-09-13T15:17:53.297Z,16.14
2017-09-13T15:19:02.179Z,16.15
2017-09-13T15:20:11.031Z,16.04
2017-09-13T15:21:19.931Z,15.92
2017-09-13T15:22:28.839Z,15.89
2017-09-13T15:23:37.748Z,15.83
2017-09-13T15:24:46.633Z,15.84
2017-09-13T15:25:55.543Z,15.84
2017-09-13T15:27:04.544Z,15.8
2017-09-13T15:28:13.419Z,15.84
2017-09-13T15:29:22.320Z,15.8
2017-09-13T15:30:31.156Z,15.71
2017-09-13T15:31:40.058Z,15.67
2017-09-13T15:32:48.893Z,15.56
2017-09-13T15:33:57.728Z,15.46
2017-09-13T15:35:06.580Z,15.49
2017-09-13T15:36:15.416Z,15.49
2017-09-13T15:37:24.390Z,15.51
2017-09-13T15:38:33.535Z,15.43
2017-09-13T15:39:42.372Z,15.28
2017-09-13T15:40:51.317Z,15.2
2017-09-13T15:42:00.245Z,15.17
2017-09-13T15:43:09.085Z,15.17
2017-09-13T15:44:18.288Z,15.23
2017-09-13T15:45:27.123Z,15.23
2017-09-13T15:46:36.070Z,15.25
2017-09-13T15:47:45.028Z,15.25
2017-09-13T15:48:53.992Z,15.23
2017-09-13T15:50:02.870Z,15.25
2017-09-13T15:51:12.221Z,15.32
2017-09-13T15:52:21.056Z,15.27
2017-09-13T15:53:29.897Z,15.17
2017-09-13T15:54:38.869Z,15.25
2017-09-13T15:55:47.917Z,15.27
2017-09-13T15:56:56.767Z,15.19
2017-09-13T15:58:05.601Z,15.17
2017-09-13T15:59:14.435Z,15.28
2017-09-13T16:00:23.276Z,15.38
2017-09-13T16:01:32.112Z,15.38
2017-09-13T16:02:40.952Z,15.39
2017-09-13T16:03:49.789Z,15.36
2017-09-13T16:04:58.623Z,15.39
2017-09-13T16:06:07.454Z,15.34
2017-09-13T16:07:16.295Z,15.38
2017-09-13T16:08:25.126Z,15.35
2017-09-13T16:09:33.970Z,15.39
2017-09-13T16:10:42.803Z,15.43
2017-09-13T16:11:51.639Z,15.44
2017-09-13T16:13:00.800Z,15.46
2017-09-13T16:14:09.636Z,15.46
2017-09-13T16:15:18.474Z,15.47
2017-09-13T16:16:27.309Z,15.47
2017-09-13T16:17:36.145Z,15.59
2017-09-13T16:18:44.978Z,15.46
2017-09-13T16:19:53.816Z,15.59
2017-09-13T16:21:02.648Z,15.51
2017-09-13T16:22:11.484Z,15.64
2017-09-13T16:23:20.315Z,15.51
2017-09-13T16:24:29.150Z,15.6
2017-09-13T16:25:37.987Z,15.5
2017-09-13T16:26:46.823Z,15.5
2017-09-13T16:27:55.784Z,15.47
2017-09-13T16:29:04.695Z,15.39
2017-09-13T16:30:13.724Z,15.47
2017-09-13T16:31:22.616Z,15.41
2017-09-13T16:32:31.611Z,15.49
2017-09-13T16:33:40.494Z,15.38
2017-09-13T16:34:49.623Z,15.51
2017-09-13T16:35:58.490Z,15.43
2017-09-13T16:37:07.332Z,15.46
2017-09-13T16:38:16.265Z,15.5
2017-09-13T16:39:25.101Z,15.39
2017-09-13T16:40:34.353Z,15.49
2017-09-13T16:41:43.187Z,15.39
2017-09-13T16:42:52.077Z,15.38
2017-09-13T16:44:00.917Z,15.36
2017-09-13T16:45:09.841Z,15.34
2017-09-13T16:46:18.708Z,15.19
2017-09-13T16:47:27.544Z,15.32
2017-09-13T16:48:36.392Z,15.38
2017-09-13T16:49:45.269Z,15.35
2017-09-13T16:50:54.238Z,15.36
2017-09-13T16:52:03.083Z,15.39
2017-09-13T16:53:11.947Z,15.36
2017-09-13T16:54:20.818Z,15.31
2017-09-13T16:55:29.757Z,15.36
2017-09-13T16:56:38.735Z,15.38
2017-09-13T16:57:47.653Z,15.31
2017-09-13T16:58:56.622Z,15.23
2017-09-13T17:00:05.557Z,15.31
2017-09-13T17:01:14.511Z,15.31
2017-09-13T17:02:23.395Z,15.38
2017-09-13T17:03:32.311Z,15.44
2017-09-13T17:04:41.330Z,15.47
2017-09-13T17:05:50.193Z,15.47
2017-09-13T17:06:59.066Z,15.39
2017-09-13T17:08:07.958Z,15.5
2017-09-13T17:09:16.977Z,15.5
2017-09-13T17:10:25.883Z,15.47
2017-09-13T17:11:34.999Z,15.47
2017-09-13T17:12:44.202Z,15.43
2017-09-13T17:13:53.243Z,15.39
2017-09-13T17:15:02.092Z,15.36
2017-09-13T17:16:11.189Z,15.46
2017-09-13T17:17:20.342Z,15.41
2017-09-13T17:18:29.296Z,15.47
2017-09-13T17:19:38.197Z,15.32
2017-09-13T17:20:47.051Z,15.46
2017-09-13T17:21:55.887Z,15.46
2017-09-13T17:23:04.722Z,15.49
2017-09-13T17:24:13.555Z,15.43
2017-09-13T17:25:22.393Z,15.41
2017-09-13T17:26:31.228Z,15.38
2017-09-13T17:27:40.058Z,15.46
2017-09-13T17:28:48.899Z,15.49
2017-09-13T17:29:57.733Z,15.34
2017-09-13T17:31:06.572Z,15.31
2017-09-13T17:32:15.404Z,15.38
2017-09-13T17:33:24.246Z,15.5
2017-09-13T17:34:33.077Z,15.47
2017-09-13T17:35:41.917Z,15.56
2017-09-13T17:36:50.751Z,15.56
2017-09-13T17:37:59.587Z,15.49
2017-09-13T17:39:08.432Z,15.51
2017-09-13T17:40:17.266Z,15.68
2017-09-13T17:41:26.104Z,15.71
2017-09-13T17:42:34.935Z,15.69
2017-09-13T17:43:43.776Z,15.67
2017-09-13T17:44:52.610Z,15.53
2017-09-13T17:46:01.454Z,15.56
2017-09-13T17:47:10.289Z,15.6
2017-09-13T17:48:19.129Z,15.65
2017-09-13T17:49:27.964Z,15.65
2017-09-13T17:50:36.798Z,15.49
2017-09-13T17:51:45.631Z,15.53
2017-09-13T17:52:54.472Z,15.53
2017-09-13T17:54:03.642Z,15.59
2017-09-13T17:55:12.475Z,15.67
2017-09-13T17:56:21.310Z,15.67
2017-09-13T17:57:30.155Z,15.68
2017-09-13T17:58:38.994Z,15.71
2017-09-13T17:59:47.830Z,15.68
2017-09-13T18:00:56.666Z,15.71
2017-09-13T18:02:05.505Z,15.71
2017-09-13T18:03:14.337Z,15.68
2017-09-13T18:04:23.173Z,15.69
2017-09-13T18:05:32.008Z,15.68
2017-09-13T18:06:41.254Z,15.82
2017-09-13T18:07:50.113Z,15.8
2017-09-13T18:08:59.017Z,15.83
2017-09-13T18:10:07.872Z,15.83
2017-09-13T18:11:16.728Z,15.86
2017-09-13T18:12:25.580Z,15.84
2017-09-13T18:13:34.422Z,15.87
2017-09-13T18:14:43.275Z,15.84
2017-09-13T18:15:52.141Z,15.84
2017-09-13T18:17:00.999Z,15.9
2017-09-13T18:18:09.857Z,15.93
2017-09-13T18:19:18.714Z,16.02
2017-09-13T18:20:27.900Z,16
2017-09-13T18:21:36.751Z,15.97
2017-09-13T18:22:45.604Z,16.02
2017-09-13T18:23:54.459Z,16.02
2017-09-13T18:25:03.318Z,16.07
2017-09-13T18:26:12.179Z,16.09
2017-09-13T18:27:21.032Z,16.12
2017-09-13T18:28:29.879Z,16
2017-09-13T18:29:38.737Z,16.14
2017-09-13T18:30:47.595Z,16.12
2017-09-13T18:31:56.787Z,16.08
2017-09-13T18:33:05.635Z,16.05
2017-09-13T18:34:14.489Z,16.01
2017-09-13T18:35:23.345Z,15.86
2017-09-13T18:36:32.216Z,15.84
2017-09-13T18:37:41.067Z,15.87
2017-09-13T18:38:49.918Z,15.86
2017-09-13T18:39:58.780Z,15.9
2017-09-13T18:41:07.636Z,16.02
2017-09-13T18:42:16.500Z,15.94
2017-09-13T18:43:25.359Z,15.97
2017-09-13T18:44:34.220Z,15.86
2017-09-13T18:45:43.070Z,16
2017-09-13T18:46:51.921Z,15.86
2017-09-13T18:48:00.785Z,15.87
2017-09-13T18:49:09.646Z,16
2017-09-13T18:50:18.506Z,15.94
2017-09-13T18:51:27.365Z,16.07
2017-09-13T18:52:36.223Z,15.83
2017-09-13T18:53:45.412Z,15.87
2017-09-13T18:54:54.274Z,15.8
2017-09-13T18:56:03.135Z,15.86
2017-09-13T18:57:11.985Z,15.8
2017-09-13T18:58:20.845Z,15.78
2017-09-13T18:59:29.704Z,15.86
2017-09-13T19:00:38.563Z,15.9
2017-09-13T19:01:47.421Z,15.83
2017-09-13T19:02:56.324Z,15.86
2017-09-13T19:04:05.186Z,15.8
2017-09-13T19:05:14.039Z,15.76
2017-09-13T19:06:22.897Z,15.86
2017-09-13T19:07:31.751Z,15.82
2017-09-13T19:08:40.616Z,15.86
2017-09-13T19:09:49.467Z,15.97
2017-09-13T19:10:58.324Z,15.96
2017-09-13T19:12:07.177Z,15.97
2017-09-13T19:13:16.042Z,16.02
2017-09-13T19:14:24.860Z,15.93
2017-09-13T19:15:33.702Z,16.01
2017-09-13T19:16:42.538Z,16.02
2017-09-13T19:17:51.375Z,16
2017-09-13T19:19:00.211Z,15.93
2017-09-13T19:20:09.052Z,16.04
2017-09-13T19:21:18.222Z,15.86
2017-09-13T19:22:27.058Z,16.01
2017-09-13T19:23:35.897Z,16.04
2017-09-13T19:24:44.735Z,15.94
2017-09-13T19:25:53.576Z,16.05
2017-09-13T19:27:02.483Z,16.04
2017-09-13T19:28:11.321Z,16.02
2017-09-13T19:29:20.183Z,15.94
2017-09-13T19:30:28.996Z,16
2017-09-13T19:31:37.833Z,16.04
2017-09-13T19:32:46.666Z,16.02
2017-09-13T19:33:55.509Z,15.97
2017-09-13T19:35:04.343Z,16.08
2017-09-13T19:36:13.181Z,16.12
2017-09-13T19:37:22.019Z,16.02
2017-09-13T19:38:30.856Z,16.11
2017-09-13T19:39:39.688Z,16.08
2017-09-13T19:40:48.525Z,16.17
2017-09-13T19:41:57.363Z,16.12
2017-09-13T19:43:06.203Z,16.05
2017-09-13T19:44:15.045Z,16.11
2017-09-13T19:45:23.883Z,16.05
2017-09-13T19:46:32.715Z,16.14
2017-09-13T19:47:41.551Z,16.12
2017-09-13T19:48:50.386Z,16.17
2017-09-13T19:49:59.228Z,16.15
2017-09-13T19:51:08.066Z,16.17
2017-09-13T19:52:16.896Z,16.12
2017-09-13T19:53:25.733Z,16.04
2017-09-13T19:54:34.594Z,16.11
2017-09-13T19:55:43.410Z,16.15
2017-09-13T19:56:52.247Z,16.14
2017-09-13T19:58:01.089Z,16.15
2017-09-13T19:59:09.928Z,16.21
2017-09-13T20:00:18.759Z,16.09
2017-09-13T20:01:27.601Z,16.09
2017-09-13T20:02:36.755Z,16.15
2017-09-13T20:03:45.600Z,16.15
2017-09-13T20:04:54.433Z,16
2017-09-13T20:06:03.269Z,16.07
2017-09-13T20:07:12.106Z,16.14
2017-09-13T20:08:20.948Z,16.09
2017-09-13T20:09:29.781Z,16.09
2017-09-13T20:10:38.623Z,16.14
2017-09-13T20:11:47.452Z,16.11
2017-09-13T20:12:56.289Z,16.09
2017-09-13T20:14:05.129Z,16.17
2017-09-13T20:15:13.972Z,16.08
2017-09-13T20:16:22.803Z,16.02
2017-09-13T20:17:31.642Z,16.14
2017-09-13T20:18:40.480Z,16.12
2017-09-13T20:19:49.315Z,15.93
2017-09-13T20:20:58.530Z,16.11
2017-09-13T20:22:07.396Z,16.02
2017-09-13T20:23:16.228Z,16.01
2017-09-13T20:24:25.069Z,16.05
2017-09-13T20:25:33.902Z,16.01
2017-09-13T20:26:42.745Z,16.02
2017-09-13T20:27:51.581Z,16.05
2017-09-13T20:29:00.415Z,16
2017-09-13T20:30:09.253Z,15.97
2017-09-13T20:31:18.091Z,16.05
2017-09-13T20:32:26.926Z,16.04
2017-09-13T20:33:35.760Z,15.97
2017-09-13T20:34:44.601Z,16.04
2017-09-13T20:35:53.433Z,15.94
2017-09-13T20:37:02.265Z,16.05
2017-09-13T20:38:11.431Z,16.15
2017-09-13T20:39:20.269Z,16.08
2017-09-13T20:40:29.108Z,16.04
2017-09-13T20:41:37.945Z,16.05
2017-09-13T20:42:46.780Z,15.97
2017-09-13T20:43:55.615Z,16.04
2017-09-13T20:45:04.450Z,16.05
2017-09-13T20:46:13.291Z,16.04
2017-09-13T20:47:22.128Z,16.01
2017-09-13T20:48:30.966Z,16
2017-09-13T20:49:39.798Z,16.11
2017-09-13T20:50:48.637Z,16.05
2017-09-13T20:51:57.474Z,15.97
2017-09-13T20:53:06.337Z,15.94
2017-09-13T20:54:15.155Z,16.02
2017-09-13T20:55:23.996Z,16.04
2017-09-13T20:56:33.158Z,16.04
2017-09-13T20:57:41.995Z,15.96
2017-09-13T20:58:51.157Z,16.05
2017-09-13T20:59:59.996Z,16.04
2017-09-13T21:01:08.832Z,16.01
2017-09-13T21:02:17.663Z,15.94
2017-09-13T21:03:26.498Z,16.01
2017-09-13T21:04:35.333Z,16.01
2017-09-13T21:05:44.172Z,16.02
2017-09-13T21:06:53.007Z,16.01
2017-09-13T21:08:01.840Z,16
2017-09-13T21:09:10.676Z,16.01
2017-09-13T21:10:19.514Z,16
2017-09-13T21:11:28.350Z,16
2017-09-13T21:12:37.184Z,15.94
2017-09-13T21:13:46.017Z,15.96
2017-09-13T21:14:54.848Z,15.92